createdAt,value
2022-11-04T00:00:48.046Z,99843.44
2022-11-04T00:03:24.446Z,99823.50
2022-11-04T00:05:53.824Z,99850.28
2022-11-04T00:08:26.293Z,99846.34
2022-11-04T00:11:11.953Z,99849.88
2022-11-04T00:13:41.959Z,99837.03
2022-11-04T00:16:24.111Z,99849.81
2022-11-04T00:18:55.665Z,99846.50
2022-11-04T00:21:37.927Z,99850.72
2022-11-04T00:24:45.230Z,99841.44
2022-11-04T00:27:27.979Z,99845.00
2022-11-04T00:30:02.559Z,99843.06
2022-11-04T00:32:47.556Z,99845.56
2022-11-04T00:35:19.485Z,99846.44
2022-11-04T00:37:48.523Z,99843.16
2022-11-04T00:40:18.548Z,99847.94
2022-11-04T00:42:48.470Z,99840.75
2022-11-04T00:45:17.857Z,99836.41
2022-11-04T00:47:47.360Z,99835.81
2022-11-04T00:50:23.871Z,99841.22
2022-11-04T00:52:53.254Z,99839.44
2022-11-04T00:55:22.576Z,99834.34
2022-11-04T00:57:51.849Z,99828.31
2022-11-04T01:00:21.545Z,99838.72
2022-11-04T01:02:50.992Z,99831.16
2022-11-04T01:05:20.077Z,99829.78
2022-11-04T01:07:51.204Z,99823.94
2022-11-04T01:10:20.664Z,99832.16
2022-11-04T01:12:50.051Z,99831.97
2022-11-04T01:15:19.551Z,99831.97
2022-11-04T01:17:48.758Z,99834.50
2022-11-04T01:20:18.260Z,99839.59
2022-11-04T01:22:47.908Z,99827.66
2022-11-04T01:25:18.979Z,99826.97
2022-11-04T01:27:48.249Z,99833.22
2022-11-04T01:30:17.545Z,99824.25
2022-11-04T01:32:46.877Z,99825.25
2022-11-04T01:35:26.136Z,99813.25
2022-11-04T01:37:55.945Z,99821.72
2022-11-04T01:40:27.580Z,99827.75
2022-11-04T01:42:57.151Z,99821.13
2022-11-04T01:45:26.978Z,99832.09
2022-11-04T01:48:03.450Z,99826.91
2022-11-04T01:50:36.557Z,99833.78
2022-11-04T01:53:12.162Z,99830.13
2022-11-04T01:55:48.007Z,99823.16
2022-11-04T01:58:25.400Z,99824.69
2022-11-04T02:00:59.981Z,99830.72
2022-11-04T02:03:35.671Z,99817.94
2022-11-04T02:06:05.211Z,99827.34
2022-11-04T02:08:35.653Z,99821.31
2022-11-04T02:11:07.011Z,99828.88
2022-11-04T02:16:23.421Z,99824.84
2022-11-04T02:19:01.324Z,99831.47
2022-11-04T02:21:52.171Z,99829.78
2022-11-04T02:27:58.906Z,99831.72
2022-11-04T02:30:37.267Z,99829.13
2022-11-04T02:33:20.029Z,99821.50
2022-11-04T02:36:00.965Z,99820.53
2022-11-04T02:38:39.388Z,99822.06
2022-11-04T02:41:24.636Z,99822.22
2022-11-04T02:44:03.015Z,99822.41
2022-11-04T02:46:39.926Z,99818.19
2022-11-04T02:49:15.810Z,99808.72
2022-11-04T02:54:32.905Z,99823.16
2022-11-04T02:57:10.980Z,99829.03
2022-11-04T02:59:46.438Z,99824.84
2022-11-04T03:02:34.799Z,99829.13
2022-11-04T03:05:06.291Z,99814.44
2022-11-04T03:10:18.785Z,99823.41
2022-11-04T03:12:53.592Z,99831.94
2022-11-04T03:15:34.848Z,99826.75
2022-11-04T03:18:18.432Z,99827.53
2022-11-04T03:20:50.712Z,99830.13
2022-11-04T03:23:21.021Z,99821.63
2022-11-04T03:26:08.886Z,99817.19
2022-11-04T03:28:45.943Z,99808.72
2022-11-04T03:31:22.538Z,99821.91
2022-11-04T03:33:55.471Z,99811.91
2022-11-04T03:36:32.652Z,99825.50
2022-11-04T03:39:02.146Z,99819.63
2022-11-04T03:41:37.129Z,99825.56
2022-11-04T03:44:06.992Z,99823.81
2022-11-04T03:46:36.719Z,99808.56
2022-11-04T03:49:09.372Z,99822.66
2022-11-04T03:51:38.591Z,99822.81
2022-11-04T03:54:09.131Z,99810.72
2022-11-04T03:57:03.607Z,99839.13
2022-11-04T03:59:58.300Z,99823.09
2022-11-04T04:02:37.654Z,99819.38
2022-11-04T04:05:18.672Z,99835.31
2022-11-04T04:07:53.984Z,99819.03
2022-11-04T04:10:42.859Z,99817.09
2022-11-04T04:13:24.676Z,99825.44
2022-11-04T04:15:59.569Z,99822.91
2022-11-04T04:18:37.430Z,99827.25
2022-11-04T04:21:14.082Z,99826.59
2022-11-04T04:24:04.472Z,99825.16
2022-11-04T04:26:49.434Z,99824.44
2022-11-04T04:29:20.695Z,99821.84
2022-11-04T04:31:52.132Z,99807.81
2022-11-04T04:34:29.335Z,99828.38
2022-11-04T04:37:06.667Z,99835.22
2022-11-04T04:39:58.308Z,99827.34
2022-11-04T04:42:47.599Z,99828.34
2022-11-04T04:45:23.768Z,99837.09
2022-11-04T04:47:54.119Z,99826.00
2022-11-04T04:50:24.434Z,99842.94
2022-11-04T04:52:58.732Z,99844.97
2022-11-04T04:55:29.634Z,99847.59
2022-11-04T04:58:03.855Z,99849.31
2022-11-04T05:00:33.113Z,99846.06
2022-11-04T05:03:02.287Z,99808.16
2022-11-04T05:05:36.607Z,99823.25
2022-11-04T05:08:11.332Z,99854.72
2022-11-04T05:10:40.766Z,99857.63
2022-11-04T05:13:30.090Z,99840.00
2022-11-04T05:16:09.799Z,99850.13
2022-11-04T05:18:39.581Z,99834.13
2022-11-04T05:21:11.098Z,99852.34
2022-11-04T05:23:42.295Z,99855.47
2022-11-04T05:26:11.894Z,99849.56
2022-11-04T05:28:41.131Z,99840.09
2022-11-04T05:31:10.975Z,99851.00
2022-11-04T05:33:40.215Z,99857.28
2022-11-04T05:36:10.608Z,99866.59
2022-11-04T05:38:41.893Z,99852.16
2022-11-04T05:41:25.100Z,99868.59
2022-11-04T05:44:03.341Z,99860.03
2022-11-04T05:46:33.112Z,99834.16
2022-11-04T05:49:02.328Z,99845.91
2022-11-04T05:51:32.251Z,99870.78
2022-11-04T05:54:04.466Z,99856.28
2022-11-04T05:56:33.803Z,99862.50
2022-11-04T05:59:02.904Z,99863.56
2022-11-04T06:01:35.465Z,99866.16
2022-11-04T06:04:06.376Z,99871.69
2022-11-04T06:06:38.698Z,99872.88
2022-11-04T06:09:09.943Z,99873.78
2022-11-04T06:11:40.172Z,99868.50
2022-11-04T06:14:10.287Z,99862.41
2022-11-04T06:16:46.022Z,99871.38
2022-11-04T06:19:21.785Z,99872.09
2022-11-04T06:21:53.119Z,99880.28
2022-11-04T06:24:24.323Z,99880.28
2022-11-04T06:26:53.838Z,99871.19
2022-11-04T06:29:22.913Z,99878.16
2022-11-04T06:31:52.102Z,99888.13
2022-11-04T06:34:21.375Z,99886.72
2022-11-04T06:36:51.239Z,99886.72
2022-11-04T06:39:25.502Z,99878.13
2022-11-04T06:41:59.561Z,99891.72
2022-11-04T06:44:33.903Z,99850.47
2022-11-04T06:47:03.568Z,99894.09
2022-11-04T06:49:32.711Z,99891.94
2022-11-04T06:52:02.779Z,99884.38
2022-11-04T06:54:31.853Z,99895.84
2022-11-04T06:57:09.505Z,99896.00
2022-11-04T06:59:38.965Z,99894.38
2022-11-04T07:02:08.357Z,99889.53
2022-11-04T07:04:39.473Z,99886.28
2022-11-04T07:07:08.799Z,99900.53
2022-11-04T07:09:38.039Z,99899.06
2022-11-04T07:12:09.406Z,99897.97
2022-11-04T07:14:38.680Z,99870.03
2022-11-04T07:17:08.270Z,99909.16
2022-11-04T07:19:37.436Z,99895.25
2022-11-04T07:22:11.687Z,99899.50
2022-11-04T07:24:41.155Z,99902.34
2022-11-04T07:27:12.199Z,99902.53
2022-11-04T07:29:41.477Z,99903.22
2022-11-04T07:32:10.557Z,99899.06
2022-11-04T07:34:40.095Z,99914.63
2022-11-04T07:37:09.245Z,99900.97
2022-11-04T07:39:38.379Z,99912.09
2022-11-04T07:42:09.928Z,99902.19
2022-11-04T07:44:41.181Z,99890.69
2022-11-04T07:47:16.950Z,99898.72
2022-11-04T07:49:46.330Z,99898.69
2022-11-04T07:52:15.488Z,99904.72
2022-11-04T07:54:44.850Z,99906.72
2022-11-04T07:57:14.628Z,99901.06
2022-11-04T07:59:45.764Z,99898.53
2022-11-04T08:02:14.996Z,99897.47
2022-11-04T08:04:44.171Z,99904.91
2022-11-04T08:07:15.367Z,99909.53
2022-11-04T08:09:49.575Z,99900.44
2022-11-04T08:12:20.392Z,99894.19
2022-11-04T08:14:51.614Z,99904.38
2022-11-04T08:17:20.881Z,99907.81
2022-11-04T08:19:50.692Z,99894.47
2022-11-04T08:22:20.220Z,99895.97
2022-11-04T08:24:49.633Z,99901.53
2022-11-04T08:27:18.918Z,99899.63
2022-11-04T08:29:48.383Z,99901.81
2022-11-04T08:32:25.226Z,99896.78
2022-11-04T08:34:54.462Z,99901.31
2022-11-04T08:37:23.674Z,99896.56
2022-11-04T08:39:53.116Z,99893.31
2022-11-04T08:42:22.356Z,99889.63
2022-11-04T08:44:53.234Z,99889.81
2022-11-04T08:47:25.327Z,99899.06
2022-11-04T08:49:55.067Z,99894.91
2022-11-04T08:52:24.214Z,99891.44
2022-11-04T08:54:57.620Z,99884.81
2022-11-04T08:57:32.503Z,99896.56
2022-11-04T09:00:01.680Z,99891.28
2022-11-04T09:02:38.920Z,99894.97
2022-11-04T09:05:08.951Z,99879.69
2022-11-04T09:07:38.778Z,99902.47
2022-11-04T09:10:09.446Z,99852.78
2022-11-04T09:12:38.997Z,99868.88
2022-11-04T09:15:13.916Z,99871.31
2022-11-04T09:17:45.220Z,99888.47
2022-11-04T09:20:19.761Z,99894.09
2022-11-04T09:22:50.047Z,99899.25
2022-11-04T09:25:19.579Z,99845.16
2022-11-04T09:27:48.838Z,99895.22
2022-11-04T09:30:18.384Z,99885.19
2022-11-04T09:32:52.797Z,99891.38
2022-11-04T09:35:22.635Z,99852.19
2022-11-04T09:37:52.457Z,99839.56
2022-11-04T09:40:24.230Z,99874.56
2022-11-04T09:43:16.205Z,99879.31
2022-11-04T09:45:47.408Z,99881.13
2022-11-04T09:48:28.766Z,99887.19
2022-11-04T09:51:02.212Z,99872.41
2022-11-04T09:53:39.587Z,99893.56
2022-11-04T09:56:15.717Z,99879.19
2022-11-04T09:58:45.722Z,99887.81
2022-11-04T10:01:27.721Z,99891.91
2022-11-04T10:04:20.358Z,99887.66
2022-11-04T10:07:10.751Z,99885.16
2022-11-04T10:09:52.460Z,99875.84
2022-11-04T10:12:35.585Z,99890.84
2022-11-04T10:15:32.341Z,99858.78
2022-11-04T10:18:16.129Z,99895.13
2022-11-04T10:21:04.177Z,99874.06
2022-11-04T10:23:36.016Z,99863.25
2022-11-04T10:26:11.771Z,99890.63
2022-11-04T10:28:44.690Z,99880.53
2022-11-04T10:31:17.339Z,99878.59
2022-11-04T10:33:51.514Z,99878.91
2022-11-04T10:36:25.846Z,99871.66
2022-11-04T10:38:56.822Z,99901.06
2022-11-04T10:41:39.417Z,99900.81
2022-11-04T10:44:18.488Z,99895.16
2022-11-04T10:46:57.220Z,99890.41
2022-11-04T10:50:21.996Z,99872.28
2022-11-04T10:52:48.509Z,99884.22
2022-11-04T10:55:43.550Z,99871.31
2022-11-04T10:58:20.105Z,99866.91
2022-11-04T11:00:49.766Z,99876.84
2022-11-04T11:03:31.771Z,99892.66
2022-11-04T11:06:21.710Z,99868.66
2022-11-04T11:08:53.951Z,99869.16
2022-11-04T11:11:44.885Z,99880.03
2022-11-04T11:14:32.515Z,99878.06
2022-11-04T11:17:20.424Z,99874.44
2022-11-04T11:19:55.470Z,99875.97
2022-11-04T11:22:41.562Z,99881.06
2022-11-04T11:25:29.741Z,99871.47
2022-11-04T11:28:01.216Z,99872.75
2022-11-04T11:30:38.573Z,99889.16
2022-11-04T11:33:17.876Z,99882.88
2022-11-04T11:35:52.907Z,99879.16
2022-11-04T11:38:27.003Z,99881.34
2022-11-04T11:41:25.568Z,99902.00
2022-11-04T11:43:58.313Z,99891.59
2022-11-04T11:46:29.649Z,99895.34
2022-11-04T11:49:01.445Z,99862.66
2022-11-04T11:51:42.411Z,99899.94
2022-11-04T11:54:22.271Z,99891.69
2022-11-04T11:57:13.249Z,99909.91
2022-11-04T12:02:49.883Z,99911.94
2022-11-04T12:11:39.257Z,99921.81
2022-11-04T12:14:23.957Z,99923.56
2022-11-04T12:17:03.546Z,99921.78
2022-11-04T12:19:51.817Z,99908.41
2022-11-04T12:22:31.915Z,99886.09
2022-11-04T12:25:17.147Z,99921.19
2022-11-04T12:27:54.206Z,99926.09
2022-11-04T12:30:33.789Z,99926.53
2022-11-04T12:33:23.541Z,99923.66
2022-11-04T12:36:04.904Z,99910.00
2022-11-04T12:38:55.772Z,99905.28
2022-11-04T12:41:59.397Z,99906.47
2022-11-04T12:44:39.205Z,99915.06
2022-11-04T12:47:23.241Z,99922.81
2022-11-04T12:56:06.142Z,99928.50
2022-11-04T12:58:44.391Z,99913.88
2022-11-04T13:01:29.767Z,99931.03
2022-11-04T13:04:06.198Z,99922.59
2022-11-04T13:06:40.778Z,99908.28
2022-11-04T13:09:16.909Z,99913.38
2022-11-04T13:12:01.080Z,99922.81
2022-11-04T13:14:35.089Z,99907.19
2022-11-04T13:17:09.953Z,99925.81
2022-11-04T13:19:47.738Z,99940.84
2022-11-04T13:22:20.800Z,99941.66
2022-11-04T13:24:53.866Z,99913.38
2022-11-04T13:27:28.942Z,99940.09
2022-11-04T13:30:07.633Z,99930.44
2022-11-04T13:32:43.407Z,99939.97
2022-11-04T13:35:21.549Z,99939.09
2022-11-04T13:37:59.625Z,99949.22
2022-11-04T13:40:35.667Z,99922.38
2022-11-04T13:43:34.905Z,99941.59
2022-11-04T13:46:04.709Z,99949.88
2022-11-04T13:48:37.577Z,99922.31
2022-11-04T13:51:10.223Z,99962.63
2022-11-04T13:53:45.254Z,99948.06
2022-11-04T13:56:33.842Z,99925.19
2022-11-04T13:59:19.076Z,99949.97
2022-11-04T14:01:48.984Z,99971.66
2022-11-04T14:04:30.082Z,99947.19
2022-11-04T14:07:03.793Z,99964.22
2022-11-04T14:09:54.614Z,99945.47
2022-11-04T14:12:32.840Z,99973.38
2022-11-04T14:15:12.899Z,99949.41
2022-11-04T14:18:03.458Z,99959.72
2022-11-04T14:20:36.559Z,99956.91
2022-11-04T14:23:08.564Z,99970.03
2022-11-04T14:25:41.452Z,99940.78
2022-11-04T14:28:29.684Z,99948.94
2022-11-04T14:31:02.076Z,99967.00
2022-11-04T14:33:51.167Z,99918.63
2022-11-04T14:36:37.204Z,99961.47
2022-11-04T14:39:21.716Z,99975.06
2022-11-04T14:41:56.680Z,99965.75
2022-11-04T14:44:32.400Z,99982.09
2022-11-04T14:47:15.603Z,99976.22
2022-11-04T14:49:48.179Z,99993.75
2022-11-04T14:52:26.409Z,99963.34
2022-11-04T14:55:00.156Z,99961.19
2022-11-04T14:57:39.860Z,99986.31
2022-11-04T15:00:29.368Z,99979.59
2022-11-04T15:05:54.389Z,100000.53
2022-11-04T15:08:31.856Z,99992.00
2022-11-04T15:11:06.124Z,100003.22
2022-11-04T15:13:36.993Z,100014.53
2022-11-04T15:16:12.651Z,99986.03
2022-11-04T15:18:49.943Z,100003.41
2022-11-04T15:21:19.457Z,100001.56
2022-11-04T15:23:56.120Z,99990.75
2022-11-04T15:26:30.353Z,99979.69
2022-11-04T15:29:06.896Z,100000.25
2022-11-04T15:31:43.092Z,100000.25
2022-11-04T15:34:20.315Z,100013.69
2022-11-04T15:36:51.127Z,100022.94
2022-11-04T15:39:23.646Z,100018.91
2022-11-04T15:42:11.767Z,99999.00
2022-11-04T15:44:46.608Z,100029.38
2022-11-04T15:47:26.868Z,100006.81
2022-11-04T15:50:22.331Z,100023.88
2022-11-04T15:52:58.379Z,100032.63
2022-11-04T15:55:29.998Z,100028.97
2022-11-04T15:57:59.258Z,100033.44
2022-11-04T16:00:30.108Z,100025.75
2022-11-04T16:03:06.978Z,100024.31
2022-11-04T16:05:39.597Z,100013.59
2022-11-04T16:08:25.015Z,100042.81
2022-11-04T17:20:20.175Z,100086.34
2022-11-04T17:22:50.706Z,100075.09
2022-11-04T17:25:27.530Z,100093.88
2022-11-04T17:27:57.253Z,100065.06
2022-11-04T17:30:26.471Z,100089.72
2022-11-04T17:33:01.155Z,100083.41
2022-11-04T17:35:35.959Z,100054.41
2022-11-04T17:38:05.601Z,100042.66
2022-11-04T17:40:54.862Z,100077.78
2022-11-04T17:43:42.180Z,100053.03
2022-11-04T17:46:24.602Z,100048.41
2022-11-04T17:48:53.842Z,100075.84
2022-11-04T17:51:26.038Z,100087.22
2022-11-04T17:53:55.537Z,100075.25
2022-11-04T17:56:26.144Z,100099.69
2022-11-04T17:58:56.027Z,100099.81
2022-11-04T18:01:25.373Z,100078.75
2022-11-04T18:03:55.694Z,100110.28
2022-11-04T18:06:32.944Z,100112.50
2022-11-04T18:09:02.868Z,100110.19
2022-11-04T18:11:45.873Z,100099.56
2022-11-04T18:14:17.201Z,100116.91
2022-11-04T18:16:49.306Z,100102.22
2022-11-04T18:19:20.668Z,100093.94
2022-11-04T18:21:52.917Z,100112.13
2022-11-04T18:24:22.418Z,100036.75
2022-11-04T18:26:52.389Z,100078.69
2022-11-04T18:29:22.589Z,100112.84
2022-11-04T18:31:51.809Z,100112.03
2022-11-04T18:34:21.384Z,100114.53
2022-11-04T18:36:52.581Z,100118.69
2022-11-04T18:39:22.186Z,100114.28
2022-11-04T18:41:51.470Z,100099.69
2022-11-04T18:44:22.693Z,100109.38
2022-11-04T18:46:52.513Z,100100.91
2022-11-04T18:49:21.972Z,100115.13
2022-11-04T18:51:53.335Z,100118.63
2022-11-04T18:54:22.726Z,100112.41
2022-11-04T18:56:51.894Z,100133.63
2022-11-04T18:59:21.609Z,100109.88
2022-11-04T19:01:52.661Z,100123.53
2022-11-04T19:04:22.164Z,100136.00
2022-11-04T19:06:53.405Z,100125.72
2022-11-04T19:12:27.532Z,100126.84
2022-11-04T19:14:57.048Z,100135.13
2022-11-04T19:17:26.406Z,100125.66
2022-11-04T19:19:55.911Z,100129.06
2022-11-04T19:22:27.219Z,100140.31
2022-11-04T19:24:56.997Z,100126.47
2022-11-04T19:27:26.471Z,100137.16
2022-11-04T19:29:55.822Z,100140.66
2022-11-04T19:32:25.068Z,100137.25
2022-11-04T19:34:54.396Z,100149.00
2022-11-04T19:37:23.807Z,100152.25
2022-11-04T19:39:55.164Z,100155.66
2022-11-04T19:42:37.284Z,100152.44
2022-11-04T19:45:11.592Z,100163.13
2022-11-04T19:47:40.996Z,100152.69
2022-11-04T19:50:12.330Z,100157.63
2022-11-04T19:52:42.439Z,100171.22
2022-11-04T19:55:13.662Z,100163.63
2022-11-04T19:57:43.249Z,100155.28
2022-11-04T20:00:13.387Z,100163.06
2022-11-04T20:02:42.916Z,100171.59
2022-11-04T20:05:17.227Z,100158.69
2022-11-04T20:07:47.044Z,100170.28
2022-11-04T20:10:18.042Z,100176.25
2022-11-04T20:13:00.111Z,100175.31
2022-11-04T20:15:29.435Z,100196.53
2022-11-04T20:17:59.150Z,100186.16
2022-11-04T20:20:28.666Z,100179.56
2022-11-04T20:22:58.022Z,100182.25
2022-11-04T20:25:29.341Z,100190.69
2022-11-04T20:28:03.657Z,100194.53
2022-11-04T20:30:32.803Z,100179.94
2022-11-04T20:33:02.122Z,100198.13
2022-11-04T20:35:31.479Z,100194.84
2022-11-04T20:38:00.901Z,100197.28
2022-11-04T20:40:32.493Z,100180.81
2022-11-04T20:43:04.236Z,100178.91
2022-11-04T20:45:34.387Z,100173.81
2022-11-04T20:48:03.528Z,100189.84
2022-11-04T20:50:32.624Z,100185.50
2022-11-04T20:53:01.796Z,100203.97
2022-11-04T20:55:32.875Z,100202.25
2022-11-04T20:58:02.169Z,100190.88
2022-11-04T21:00:31.390Z,100210.97
2022-11-04T21:03:00.623Z,100210.53
2022-11-04T21:05:29.784Z,100214.91
2022-11-04T21:07:59.130Z,100207.16
2022-11-04T21:10:28.304Z,100200.44
2022-11-04T21:12:59.441Z,100192.97
2022-11-04T21:15:44.284Z,100203.72
2022-11-04T21:18:14.850Z,100210.41
2022-11-04T21:20:45.134Z,100219.75
2022-11-04T21:25:53.553Z,100207.13
2022-11-04T21:28:32.116Z,100216.41
2022-11-04T21:31:06.101Z,100192.84
2022-11-04T21:33:35.753Z,100221.31
2022-11-04T21:36:06.303Z,100218.72
2022-11-04T21:38:36.019Z,100218.75
2022-11-04T21:41:06.568Z,100233.47
2022-11-04T21:43:43.167Z,100228.63
2022-11-04T21:46:13.761Z,100239.53
2022-11-04T21:48:44.372Z,100231.66
2022-11-04T21:51:15.337Z,100235.25
2022-11-04T21:53:44.592Z,100231.94
2022-11-04T21:56:16.767Z,100231.50
2022-11-04T21:58:48.520Z,100232.78
2022-11-04T22:01:20.851Z,100238.81
2022-11-04T22:03:52.432Z,100241.03
2022-11-04T22:06:21.604Z,100231.63
2022-11-04T22:08:54.348Z,100235.38
2022-11-04T22:11:25.830Z,100235.41
2022-11-04T22:13:58.744Z,100231.97
2022-11-04T22:16:30.358Z,100242.50
2022-11-04T22:19:05.868Z,100235.84
2022-11-04T22:21:35.792Z,100241.22
2022-11-04T22:24:04.948Z,100237.06
2022-11-04T22:26:34.992Z,100243.69
2022-11-04T22:29:06.056Z,100248.91
2022-11-04T22:31:37.669Z,100240.56
2022-11-04T22:34:07.594Z,100244.97
2022-11-04T22:36:37.531Z,100242.41
2022-11-04T22:39:11.881Z,100251.66
2022-11-04T22:41:45.770Z,100255.94
2022-11-04T22:44:16.926Z,100258.34
2022-11-04T22:46:46.240Z,100259.13
2022-11-04T22:49:15.446Z,100261.63
2022-11-04T22:51:44.824Z,100252.84
2022-11-04T22:54:14.040Z,100257.44
2022-11-04T22:56:43.243Z,100256.53
2022-11-04T22:59:12.487Z,100267.75
2022-11-04T23:01:44.220Z,100259.19
2022-11-04T23:04:14.134Z,100265.28
2022-11-04T23:06:43.388Z,100266.25
2022-11-04T23:09:17.690Z,100274.94
2022-11-04T23:11:59.699Z,100276.69
2022-11-04T23:15:01.262Z,100264.50
2022-11-04T23:17:47.656Z,100273.28
2022-11-04T23:20:18.303Z,100288.56
2022-11-04T23:23:00.416Z,100271.22
2022-11-04T23:25:34.689Z,100279.94
2022-11-04T23:28:16.948Z,100280.72
2022-11-04T23:30:54.133Z,100288.19
2022-11-04T23:33:45.448Z,100266.28
2022-11-04T23:36:36.487Z,100287.78
2022-11-04T23:39:05.840Z,100293.00
2022-11-04T23:42:04.690Z,100282.09
2022-11-04T23:44:49.465Z,100286.28
2022-11-04T23:47:31.530Z,100286.13
2022-11-04T23:50:15.248Z,100290.59
2022-11-04T23:52:58.094Z,100285.13
2022-11-04T23:55:40.333Z,100293.63
2022-11-04T23:58:28.725Z,100303.66
